sensor_id;sensor_type;location;lat;lon;timestamp;P1;durP1;ratioP1;P2;durP2;ratioP2
75746;SDS011;64363;52.198;21.020;2023-03-23T00:00:28;44.25;;;22.38;;
75746;SDS011;64363;52.198;21.020;2023-03-23T00:03:12;38.83;;;21.27;;
75746;SDS011;64363;52.198;21.020;2023-03-23T00:05:38;37.50;;;20.10;;
75746;SDS011;64363;52.198;21.020;2023-03-23T00:08:09;39.80;;;21.75;;
75746;SDS011;64363;52.198;21.020;2023-03-23T00:10:37;45.53;;;21.60;;
75746;SDS011;64363;52.198;21.020;2023-03-23T00:13:04;38.72;;;20.52;;
75746;SDS011;64363;52.198;21.020;2023-03-23T00:15:30;62.75;;;29.98;;
75746;SDS011;64363;52.198;21.020;2023-03-23T00:17:59;42.83;;;19.95;;
75746;SDS011;64363;52.198;21.020;2023-03-23T00:20:27;43.08;;;22.48;;
75746;SDS011;64363;52.198;21.020;2023-03-23T00:22:55;41.40;;;22.50;;
75746;SDS011;64363;52.198;21.020;2023-03-23T00:25:25;45.20;;;21.02;;
75746;SDS011;64363;52.198;21.020;2023-03-23T00:27:51;40.67;;;21.65;;
75746;SDS011;64363;52.198;21.020;2023-03-23T00:30:17;41.17;;;21.52;;
75746;SDS011;64363;52.198;21.020;2023-03-23T00:32:43;41.25;;;21.50;;
75746;SDS011;64363;52.198;21.020;2023-03-23T00:35:08;42.35;;;23.20;;
75746;SDS011;64363;52.198;21.020;2023-03-23T00:37:34;44.35;;;23.65;;
75746;SDS011;64363;52.198;21.020;2023-03-23T00:40:01;40.17;;;21.50;;
75746;SDS011;64363;52.198;21.020;2023-03-23T00:42:31;47.22;;;23.30;;
75746;SDS011;64363;52.198;21.020;2023-03-23T00:45:01;46.03;;;22.60;;
75746;SDS011;64363;52.198;21.020;2023-03-23T00:47:27;42.90;;;22.33;;
75746;SDS011;64363;52.198;21.020;2023-03-23T00:49:53;43.03;;;20.67;;
75746;SDS011;64363;52.198;21.020;2023-03-23T00:52:21;40.90;;;21.23;;
75746;SDS011;64363;52.198;21.020;2023-03-23T00:54:47;57.28;;;23.55;;
75746;SDS011;64363;52.198;21.020;2023-03-23T00:57:13;44.17;;;21.98;;
75746;SDS011;64363;52.198;21.020;2023-03-23T00:59:38;45.70;;;22.50;;
75746;SDS011;64363;52.198;21.020;2023-03-23T01:02:04;45.97;;;23.02;;
75746;SDS011;64363;52.198;21.020;2023-03-23T01:04:30;47.42;;;22.35;;
75746;SDS011;64363;52.198;21.020;2023-03-23T01:06:57;45.72;;;23.45;;
75746;SDS011;64363;52.198;21.020;2023-03-23T01:09:25;46.45;;;23.20;;
75746;SDS011;64363;52.198;21.020;2023-03-23T01:11:52;42.78;;;22.00;;
75746;SDS011;64363;52.198;21.020;2023-03-23T01:14:20;47.25;;;24.65;;
75746;SDS011;64363;52.198;21.020;2023-03-23T01:16:46;47.10;;;23.23;;
75746;SDS011;64363;52.198;21.020;2023-03-23T01:19:12;46.25;;;23.52;;
75746;SDS011;64363;52.198;21.020;2023-03-23T01:21:38;43.30;;;23.15;;
75746;SDS011;64363;52.198;21.020;2023-03-23T01:24:03;44.35;;;22.35;;
75746;SDS011;64363;52.198;21.020;2023-03-23T01:26:30;44.40;;;22.77;;
75746;SDS011;64363;52.198;21.020;2023-03-23T01:28:55;48.20;;;23.88;;
75746;SDS011;64363;52.198;21.020;2023-03-23T01:31:22;43.42;;;22.42;;
75746;SDS011;64363;52.198;21.020;2023-03-23T01:33:50;42.55;;;23.13;;
75746;SDS011;64363;52.198;21.020;2023-03-23T01:36:17;47.67;;;23.15;;
75746;SDS011;64363;52.198;21.020;2023-03-23T01:38:46;46.35;;;23.13;;
75746;SDS011;64363;52.198;21.020;2023-03-23T01:41:13;44.60;;;22.90;;
75746;SDS011;64363;52.198;21.020;2023-03-23T01:46:30;54.15;;;23.52;;
75746;SDS011;64363;52.198;21.020;2023-03-23T01:48:58;40.88;;;22.30;;
75746;SDS011;64363;52.198;21.020;2023-03-23T01:51:31;44.33;;;21.58;;
75746;SDS011;64363;52.198;21.020;2023-03-23T01:54:01;45.17;;;22.00;;
75746;SDS011;64363;52.198;21.020;2023-03-23T01:56:32;44.20;;;22.63;;
75746;SDS011;64363;52.198;21.020;2023-03-23T01:59:06;41.05;;;21.15;;
75746;SDS011;64363;52.198;21.020;2023-03-23T02:01:34;41.85;;;21.20;;
75746;SDS011;64363;52.198;21.020;2023-03-23T02:04:04;43.28;;;22.77;;
75746;SDS011;64363;52.198;21.020;2023-03-23T02:06:31;45.58;;;20.70;;
75746;SDS011;64363;52.198;21.020;2023-03-23T02:08:56;38.67;;;20.08;;
75746;SDS011;64363;52.198;21.020;2023-03-23T02:11:23;41.20;;;22.55;;
75746;SDS011;64363;52.198;21.020;2023-03-23T02:13:49;38.88;;;21.67;;
75746;SDS011;64363;52.198;21.020;2023-03-23T02:27:14;38.60;;;21.15;;
75746;SDS011;64363;52.198;21.020;2023-03-23T02:33:09;44.80;;;23.02;;
75746;SDS011;64363;52.198;21.020;2023-03-23T02:35:34;41.50;;;21.27;;
75746;SDS011;64363;52.198;21.020;2023-03-23T02:38:15;36.90;;;18.88;;
75746;SDS011;64363;52.198;21.020;2023-03-23T02:40:46;43.17;;;20.65;;
75746;SDS011;64363;52.198;21.020;2023-03-23T02:43:16;33.38;;;19.17;;
75746;SDS011;64363;52.198;21.020;2023-03-23T02:45:46;40.70;;;20.85;;
75746;SDS011;64363;52.198;21.020;2023-03-23T02:48:14;41.17;;;21.52;;
75746;SDS011;64363;52.198;21.020;2023-03-23T02:50:44;40.97;;;20.27;;
75746;SDS011;64363;52.198;21.020;2023-03-23T02:53:13;35.53;;;19.25;;
75746;SDS011;64363;52.198;21.020;2023-03-23T02:55:43;46.65;;;22.77;;
75746;SDS011;64363;52.198;21.020;2023-03-23T02:58:10;39.40;;;19.20;;
75746;SDS011;64363;52.198;21.020;2023-03-23T03:00:37;43.67;;;20.80;;
75746;SDS011;64363;52.198;21.020;2023-03-23T03:03:04;43.53;;;21.02;;
75746;SDS011;64363;52.198;21.020;2023-03-23T03:10:55;37.97;;;18.92;;
75746;SDS011;64363;52.198;21.020;2023-03-23T03:16:31;35.67;;;18.45;;
75746;SDS011;64363;52.198;21.020;2023-03-23T03:19:12;37.10;;;18.45;;
75746;SDS011;64363;52.198;21.020;2023-03-23T03:21:39;32.78;;;18.52;;
75746;SDS011;64363;52.198;21.020;2023-03-23T03:24:08;32.17;;;18.17;;
75746;SDS011;64363;52.198;21.020;2023-03-23T03:26:40;33.28;;;17.55;;
75746;SDS011;64363;52.198;21.020;2023-03-23T03:29:11;39.50;;;18.15;;
75746;SDS011;64363;52.198;21.020;2023-03-23T03:31:38;31.88;;;17.00;;
75746;SDS011;64363;52.198;21.020;2023-03-23T03:34:10;34.08;;;18.15;;
75746;SDS011;64363;52.198;21.020;2023-03-23T03:36:38;38.83;;;19.77;;
75746;SDS011;64363;52.198;21.020;2023-03-23T03:39:07;34.45;;;17.35;;
75746;SDS011;64363;52.198;21.020;2023-03-23T03:41:35;32.80;;;17.73;;
75746;SDS011;64363;52.198;21.020;2023-03-23T03:44:05;37.58;;;17.55;;
75746;SDS011;64363;52.198;21.020;2023-03-23T03:46:32;35.08;;;17.23;;
75746;SDS011;64363;52.198;21.020;2023-03-23T03:48:59;34.58;;;18.13;;
75746;SDS011;64363;52.198;21.020;2023-03-23T03:51:26;32.25;;;16.80;;
75746;SDS011;64363;52.198;21.020;2023-03-23T03:53:53;32.20;;;17.65;;
75746;SDS011;64363;52.198;21.020;2023-03-23T03:56:19;40.20;;;17.75;;
75746;SDS011;64363;52.198;21.020;2023-03-23T03:58:48;32.33;;;17.45;;
75746;SDS011;64363;52.198;21.020;2023-03-23T04:01:15;30.95;;;17.38;;
75746;SDS011;64363;52.198;21.020;2023-03-23T04:03:43;33.65;;;17.05;;
75746;SDS011;64363;52.198;21.020;2023-03-23T04:06:09;36.90;;;17.30;;
75746;SDS011;64363;52.198;21.020;2023-03-23T04:08:38;34.28;;;17.02;;
75746;SDS011;64363;52.198;21.020;2023-03-23T04:11:06;32.95;;;16.75;;
75746;SDS011;64363;52.198;21.020;2023-03-23T04:13:34;34.85;;;18.63;;
75746;SDS011;64363;52.198;21.020;2023-03-23T04:15:59;31.10;;;17.83;;
75746;SDS011;64363;52.198;21.020;2023-03-23T04:18:25;34.97;;;17.73;;
75746;SDS011;64363;52.198;21.020;2023-03-23T04:20:51;35.38;;;17.38;;
75746;SDS011;64363;52.198;21.020;2023-03-23T04:23:18;30.52;;;16.52;;
75746;SDS011;64363;52.198;21.020;2023-03-23T04:25:45;31.13;;;16.35;;
75746;SDS011;64363;52.198;21.020;2023-03-23T04:28:12;37.72;;;17.65;;
75746;SDS011;64363;52.198;21.020;2023-03-23T04:30:42;35.22;;;17.63;;
75746;SDS011;64363;52.198;21.020;2023-03-23T04:33:08;33.25;;;17.20;;
75746;SDS011;64363;52.198;21.020;2023-03-23T04:35:42;31.52;;;16.90;;
75746;SDS011;64363;52.198;21.020;2023-03-23T04:38:11;32.08;;;16.00;;
75746;SDS011;64363;52.198;21.020;2023-03-23T04:40:39;34.85;;;17.33;;
75746;SDS011;64363;52.198;21.020;2023-03-23T04:43:06;32.35;;;16.95;;
75746;SDS011;64363;52.198;21.020;2023-03-23T04:45:32;32.25;;;16.75;;
75746;SDS011;64363;52.198;21.020;2023-03-23T04:47:59;29.45;;;15.88;;
75746;SDS011;64363;52.198;21.020;2023-03-23T04:50:29;29.55;;;15.77;;
75746;SDS011;64363;52.198;21.020;2023-03-23T04:52:58;31.17;;;16.75;;
75746;SDS011;64363;52.198;21.020;2023-03-23T04:55:29;37.22;;;17.35;;
75746;SDS011;64363;52.198;21.020;2023-03-23T04:57:57;31.73;;;16.50;;
75746;SDS011;64363;52.198;21.020;2023-03-23T05:00:26;35.85;;;17.13;;
75746;SDS011;64363;52.198;21.020;2023-03-23T05:02:52;34.45;;;16.88;;
75746;SDS011;64363;52.198;21.020;2023-03-23T05:05:20;28.20;;;17.13;;
75746;SDS011;64363;52.198;21.020;2023-03-23T05:07:48;34.15;;;16.63;;
75746;SDS011;64363;52.198;21.020;2023-03-23T05:10:14;33.08;;;16.85;;
75746;SDS011;64363;52.198;21.020;2023-03-23T05:12:41;30.02;;;16.05;;
75746;SDS011;64363;52.198;21.020;2023-03-23T05:15:08;31.05;;;15.57;;
75746;SDS011;64363;52.198;21.020;2023-03-23T05:17:35;31.23;;;17.48;;
75746;SDS011;64363;52.198;21.020;2023-03-23T05:20:02;29.13;;;16.40;;
75746;SDS011;64363;52.198;21.020;2023-03-23T05:22:31;37.22;;;17.02;;
75746;SDS011;64363;52.198;21.020;2023-03-23T05:24:59;30.33;;;17.50;;
75746;SDS011;64363;52.198;21.020;2023-03-23T05:27:28;32.55;;;17.48;;
75746;SDS011;64363;52.198;21.020;2023-03-23T05:29:56;31.55;;;16.65;;
75746;SDS011;64363;52.198;21.020;2023-03-23T05:32:24;33.38;;;16.90;;
75746;SDS011;64363;52.198;21.020;2023-03-23T05:34:55;34.38;;;17.65;;
75746;SDS011;64363;52.198;21.020;2023-03-23T05:37:22;38.72;;;18.25;;
75746;SDS011;64363;52.198;21.020;2023-03-23T05:39:49;33.00;;;16.92;;
75746;SDS011;64363;52.198;21.020;2023-03-23T05:42:19;33.05;;;17.65;;
75746;SDS011;64363;52.198;21.020;2023-03-23T05:44:46;28.52;;;14.65;;
75746;SDS011;64363;52.198;21.020;2023-03-23T05:47:13;30.98;;;17.13;;
75746;SDS011;64363;52.198;21.020;2023-03-23T05:49:38;30.33;;;15.05;;
75746;SDS011;64363;52.198;21.020;2023-03-23T05:52:04;29.30;;;15.95;;
75746;SDS011;64363;52.198;21.020;2023-03-23T05:54:30;31.50;;;17.63;;
75746;SDS011;64363;52.198;21.020;2023-03-23T05:56:56;30.38;;;16.40;;
75746;SDS011;64363;52.198;21.020;2023-03-23T05:59:22;27.90;;;15.93;;
75746;SDS011;64363;52.198;21.020;2023-03-23T06:01:47;28.05;;;14.85;;
75746;SDS011;64363;52.198;21.020;2023-03-23T06:04:13;33.83;;;16.38;;
75746;SDS011;64363;52.198;21.020;2023-03-23T06:06:39;30.60;;;16.25;;
75746;SDS011;64363;52.198;21.020;2023-03-23T06:09:06;29.35;;;15.65;;
75746;SDS011;64363;52.198;21.020;2023-03-23T06:11:32;30.10;;;16.17;;
75746;SDS011;64363;52.198;21.020;2023-03-23T06:13:59;28.77;;;15.05;;
75746;SDS011;64363;52.198;21.020;2023-03-23T06:16:25;32.30;;;15.88;;
75746;SDS011;64363;52.198;21.020;2023-03-23T06:18:50;31.75;;;15.25;;
75746;SDS011;64363;52.198;21.020;2023-03-23T06:21:16;26.70;;;15.75;;
75746;SDS011;64363;52.198;21.020;2023-03-23T06:23:44;32.58;;;16.08;;
75746;SDS011;64363;52.198;21.020;2023-03-23T06:26:11;28.27;;;16.05;;
75746;SDS011;64363;52.198;21.020;2023-03-23T06:31:06;30.13;;;14.95;;
75746;SDS011;64363;52.198;21.020;2023-03-23T06:33:32;33.35;;;16.63;;
75746;SDS011;64363;52.198;21.020;2023-03-23T06:35:59;25.42;;;14.25;;
75746;SDS011;64363;52.198;21.020;2023-03-23T06:38:25;28.65;;;14.13;;
75746;SDS011;64363;52.198;21.020;2023-03-23T06:40:52;24.55;;;14.65;;
75746;SDS011;64363;52.198;21.020;2023-03-23T06:43:18;27.92;;;15.40;;
75746;SDS011;64363;52.198;21.020;2023-03-23T06:45:45;27.48;;;14.77;;
75746;SDS011;64363;52.198;21.020;2023-03-23T06:48:10;29.08;;;15.52;;
75746;SDS011;64363;52.198;21.020;2023-03-23T06:50:36;29.73;;;16.23;;
75746;SDS011;64363;52.198;21.020;2023-03-23T06:53:02;28.02;;;15.65;;
75746;SDS011;64363;52.198;21.020;2023-03-23T06:55:27;27.55;;;15.40;;
75746;SDS011;64363;52.198;21.020;2023-03-23T06:57:53;28.05;;;14.07;;
75746;SDS011;64363;52.198;21.020;2023-03-23T07:00:19;28.38;;;14.93;;
75746;SDS011;64363;52.198;21.020;2023-03-23T07:02:45;25.42;;;14.95;;
75746;SDS011;64363;52.198;21.020;2023-03-23T07:05:11;28.13;;;14.95;;
75746;SDS011;64363;52.198;21.020;2023-03-23T07:07:37;30.17;;;14.23;;
75746;SDS011;64363;52.198;21.020;2023-03-23T07:10:06;27.35;;;14.80;;
75746;SDS011;64363;52.198;21.020;2023-03-23T07:12:34;23.73;;;14.30;;
75746;SDS011;64363;52.198;21.020;2023-03-23T07:15:02;22.17;;;13.80;;
75746;SDS011;64363;52.198;21.020;2023-03-23T07:17:32;26.95;;;13.57;;
75746;SDS011;64363;52.198;21.020;2023-03-23T07:19:58;28.15;;;13.95;;
75746;SDS011;64363;52.198;21.020;2023-03-23T07:22:24;23.02;;;12.48;;
75746;SDS011;64363;52.198;21.020;2023-03-23T07:24:50;24.63;;;13.63;;
75746;SDS011;64363;52.198;21.020;2023-03-23T07:27:19;24.25;;;14.15;;
75746;SDS011;64363;52.198;21.020;2023-03-23T07:29:45;21.80;;;12.82;;
75746;SDS011;64363;52.198;21.020;2023-03-23T07:32:11;22.52;;;12.82;;
75746;SDS011;64363;52.198;21.020;2023-03-23T07:34:37;19.30;;;11.98;;
75746;SDS011;64363;52.198;21.020;2023-03-23T07:37:03;23.42;;;12.30;;
75746;SDS011;64363;52.198;21.020;2023-03-23T07:39:30;20.85;;;12.00;;
75746;SDS011;64363;52.198;21.020;2023-03-23T07:41:56;21.58;;;12.75;;
75746;SDS011;64363;52.198;21.020;2023-03-23T07:44:23;22.60;;;12.65;;
75746;SDS011;64363;52.198;21.020;2023-03-23T07:46:48;22.65;;;12.00;;
75746;SDS011;64363;52.198;21.020;2023-03-23T07:49:15;24.38;;;13.02;;
75746;SDS011;64363;52.198;21.020;2023-03-23T07:51:40;18.92;;;10.73;;
75746;SDS011;64363;52.198;21.020;2023-03-23T07:54:06;22.98;;;11.40;;
75746;SDS011;64363;52.198;21.020;2023-03-23T07:56:36;17.67;;;10.63;;
75746;SDS011;64363;52.198;21.020;2023-03-23T07:59:05;22.80;;;10.55;;
75746;SDS011;64363;52.198;21.020;2023-03-23T08:01:32;19.85;;;10.82;;
75746;SDS011;64363;52.198;21.020;2023-03-23T08:03:58;20.35;;;10.73;;
75746;SDS011;64363;52.198;21.020;2023-03-23T08:06:25;18.63;;;10.05;;
75746;SDS011;64363;52.198;21.020;2023-03-23T08:08:51;22.05;;;11.70;;
75746;SDS011;64363;52.198;21.020;2023-03-23T08:11:18;15.65;;;10.02;;
75746;SDS011;64363;52.198;21.020;2023-03-23T08:13:44;18.75;;;10.13;;
75746;SDS011;64363;52.198;21.020;2023-03-23T08:16:10;17.35;;;10.20;;
75746;SDS011;64363;52.198;21.020;2023-03-23T08:18:37;17.75;;;9.73;;
75746;SDS011;64363;52.198;21.020;2023-03-23T08:21:04;17.33;;;9.85;;
75746;SDS011;64363;52.198;21.020;2023-03-23T08:23:34;18.38;;;11.18;;
75746;SDS011;64363;52.198;21.020;2023-03-23T08:26:02;21.02;;;11.20;;
75746;SDS011;64363;52.198;21.020;2023-03-23T08:28:30;17.20;;;9.88;;
75746;SDS011;64363;52.198;21.020;2023-03-23T08:30:55;17.27;;;10.75;;
75746;SDS011;64363;52.198;21.020;2023-03-23T08:33:22;16.10;;;10.30;;
75746;SDS011;64363;52.198;21.020;2023-03-23T08:35:57;14.13;;;8.70;;
75746;SDS011;64363;52.198;21.020;2023-03-23T08:38:24;13.75;;;8.57;;
75746;SDS011;64363;52.198;21.020;2023-03-23T08:40:50;16.73;;;8.55;;
75746;SDS011;64363;52.198;21.020;2023-03-23T08:43:17;11.85;;;8.23;;
75746;SDS011;64363;52.198;21.020;2023-03-23T08:45:43;13.20;;;7.55;;
75746;SDS011;64363;52.198;21.020;2023-03-23T08:48:09;14.57;;;8.90;;
75746;SDS011;64363;52.198;21.020;2023-03-23T08:50:36;13.93;;;8.38;;
75746;SDS011;64363;52.198;21.020;2023-03-23T08:53:02;13.88;;;8.00;;
75746;SDS011;64363;52.198;21.020;2023-03-23T08:55:28;12.15;;;8.50;;
75746;SDS011;64363;52.198;21.020;2023-03-23T08:57:54;12.98;;;7.45;;
75746;SDS011;64363;52.198;21.020;2023-03-23T09:00:21;11.02;;;7.40;;
75746;SDS011;64363;52.198;21.020;2023-03-23T09:02:50;11.45;;;7.35;;
75746;SDS011;64363;52.198;21.020;2023-03-23T09:05:19;9.85;;;6.55;;
75746;SDS011;64363;52.198;21.020;2023-03-23T09:07:48;11.77;;;7.22;;
75746;SDS011;64363;52.198;21.020;2023-03-23T09:10:15;11.30;;;6.80;;
75746;SDS011;64363;52.198;21.020;2023-03-23T09:12:42;11.23;;;7.13;;
75746;SDS011;64363;52.198;21.020;2023-03-23T09:15:09;12.18;;;6.68;;
75746;SDS011;64363;52.198;21.020;2023-03-23T09:17:44;11.88;;;6.93;;
75746;SDS011;64363;52.198;21.020;2023-03-23T09:20:12;13.02;;;7.38;;
75746;SDS011;64363;52.198;21.020;2023-03-23T09:22:40;14.13;;;7.50;;
75746;SDS011;64363;52.198;21.020;2023-03-23T09:25:08;11.82;;;7.35;;
75746;SDS011;64363;52.198;21.020;2023-03-23T09:27:35;14.50;;;7.20;;
75746;SDS011;64363;52.198;21.020;2023-03-23T09:30:13;11.10;;;6.65;;
75746;SDS011;64363;52.198;21.020;2023-03-23T09:32:40;11.35;;;6.65;;
75746;SDS011;64363;52.198;21.020;2023-03-23T09:35:09;11.15;;;6.65;;
75746;SDS011;64363;52.198;21.020;2023-03-23T09:37:38;12.48;;;6.72;;
75746;SDS011;64363;52.198;21.020;2023-03-23T09:40:05;14.32;;;7.75;;
75746;SDS011;64363;52.198;21.020;2023-03-23T09:50:25;13.20;;;7.43;;
75746;SDS011;64363;52.198;21.020;2023-03-23T09:53:03;13.60;;;8.00;;
75746;SDS011;64363;52.198;21.020;2023-03-23T09:55:35;14.43;;;7.40;;
75746;SDS011;64363;52.198;21.020;2023-03-23T10:03:32;13.90;;;7.60;;
75746;SDS011;64363;52.198;21.020;2023-03-23T10:06:02;12.32;;;7.10;;
75746;SDS011;64363;52.198;21.020;2023-03-23T10:08:29;10.68;;;6.80;;
75746;SDS011;64363;52.198;21.020;2023-03-23T10:11:00;17.33;;;8.02;;
75746;SDS011;64363;52.198;21.020;2023-03-23T10:16:30;12.93;;;7.10;;
75746;SDS011;64363;52.198;21.020;2023-03-23T10:19:13;15.07;;;6.72;;
75746;SDS011;64363;52.198;21.020;2023-03-23T10:21:50;12.30;;;6.47;;
75746;SDS011;64363;52.198;21.020;2023-03-23T10:24:22;8.63;;;5.60;;
75746;SDS011;64363;52.198;21.020;2023-03-23T10:27:16;10.38;;;5.40;;
75746;SDS011;64363;52.198;21.020;2023-03-23T10:29:50;7.97;;;5.35;;
75746;SDS011;64363;52.198;21.020;2023-03-23T10:32:34;13.25;;;5.97;;
75746;SDS011;64363;52.198;21.020;2023-03-23T10:35:05;9.15;;;6.13;;
75746;SDS011;64363;52.198;21.020;2023-03-23T10:37:43;12.55;;;6.93;;
75746;SDS011;64363;52.198;21.020;2023-03-23T10:40:15;10.63;;;5.72;;
75746;SDS011;64363;52.198;21.020;2023-03-23T10:42:44;9.77;;;5.55;;
75746;SDS011;64363;52.198;21.020;2023-03-23T10:45:21;8.45;;;5.85;;
75746;SDS011;64363;52.198;21.020;2023-03-23T10:48:12;11.00;;;6.10;;
75746;SDS011;64363;52.198;21.020;2023-03-23T10:50:40;7.75;;;4.82;;
75746;SDS011;64363;52.198;21.020;2023-03-23T10:53:16;10.93;;;6.07;;
75746;SDS011;64363;52.198;21.020;2023-03-23T10:55:46;12.80;;;5.68;;
75746;SDS011;64363;52.198;21.020;2023-03-23T10:58:21;7.75;;;5.07;;
75746;SDS011;64363;52.198;21.020;2023-03-23T11:00:49;6.70;;;3.85;;
75746;SDS011;64363;52.198;21.020;2023-03-23T11:05:43;7.50;;;4.03;;
75746;SDS011;64363;52.198;21.020;2023-03-23T11:08:18;8.65;;;4.05;;
75746;SDS011;64363;52.198;21.020;2023-03-23T11:10:50;7.97;;;4.50;;
75746;SDS011;64363;52.198;21.020;2023-03-23T11:13:19;9.70;;;4.88;;
75746;SDS011;64363;52.198;21.020;2023-03-23T11:15:48;6.95;;;3.83;;
75746;SDS011;64363;52.198;21.020;2023-03-23T11:18:19;8.20;;;4.55;;
75746;SDS011;64363;52.198;21.020;2023-03-23T11:20:52;9.77;;;3.92;;
75746;SDS011;64363;52.198;21.020;2023-03-23T11:23:28;7.40;;;4.00;;
75746;SDS011;64363;52.198;21.020;2023-03-23T11:26:40;8.35;;;4.43;;
75746;SDS011;64363;52.198;21.020;2023-03-23T11:28:58;7.95;;;4.03;;
75746;SDS011;64363;52.198;21.020;2023-03-23T11:31:37;7.30;;;4.18;;
75746;SDS011;64363;52.198;21.020;2023-03-23T11:34:24;9.27;;;4.53;;
75746;SDS011;64363;52.198;21.020;2023-03-23T11:36:58;7.72;;;3.95;;
75746;SDS011;64363;52.198;21.020;2023-03-23T11:39:30;8.90;;;3.55;;
75746;SDS011;64363;52.198;21.020;2023-03-23T11:41:59;6.80;;;3.95;;
75746;SDS011;64363;52.198;21.020;2023-03-23T11:44:40;6.32;;;4.30;;
75746;SDS011;64363;52.198;21.020;2023-03-23T11:47:10;5.53;;;3.22;;
75746;SDS011;64363;52.198;21.020;2023-03-23T11:50:30;7.20;;;3.15;;
75746;SDS011;64363;52.198;21.020;2023-03-23T11:52:55;4.43;;;3.05;;
75746;SDS011;64363;52.198;21.020;2023-03-23T11:55:33;5.07;;;3.25;;
75746;SDS011;64363;52.198;21.020;2023-03-23T11:58:00;5.18;;;2.72;;
75746;SDS011;64363;52.198;21.020;2023-03-23T12:00:32;6.88;;;3.05;;
75746;SDS011;64363;52.198;21.020;2023-03-23T12:03:05;4.53;;;2.40;;
75746;SDS011;64363;52.198;21.020;2023-03-23T12:08:32;4.10;;;2.70;;
75746;SDS011;64363;52.198;21.020;2023-03-23T12:11:08;6.20;;;3.05;;
75746;SDS011;64363;52.198;21.020;2023-03-23T12:14:13;5.32;;;2.80;;
75746;SDS011;64363;52.198;21.020;2023-03-23T12:16:54;4.63;;;2.97;;
75746;SDS011;64363;52.198;21.020;2023-03-23T12:19:46;4.40;;;2.60;;
75746;SDS011;64363;52.198;21.020;2023-03-23T12:25:13;7.78;;;2.72;;
75746;SDS011;64363;52.198;21.020;2023-03-23T12:27:49;5.65;;;3.17;;
75746;SDS011;64363;52.198;21.020;2023-03-23T12:33:59;8.07;;;3.22;;
75746;SDS011;64363;52.198;21.020;2023-03-23T12:39:38;6.25;;;2.95;;
75746;SDS011;64363;52.198;21.020;2023-03-23T12:44:48;9.23;;;3.13;;
75746;SDS011;64363;52.198;21.020;2023-03-23T12:50:29;8.55;;;4.13;;
75746;SDS011;64363;52.198;21.020;2023-03-23T12:58:47;5.90;;;3.28;;
75746;SDS011;64363;52.198;21.020;2023-03-23T13:01:23;9.25;;;4.05;;
75746;SDS011;64363;52.198;21.020;2023-03-23T13:06:27;7.70;;;3.88;;
75746;SDS011;64363;52.198;21.020;2023-03-23T13:09:02;9.18;;;4.60;;
75746;SDS011;64363;52.198;21.020;2023-03-23T13:11:34;11.80;;;3.80;;
75746;SDS011;64363;52.198;21.020;2023-03-23T13:14:09;7.72;;;4.43;;
75746;SDS011;64363;52.198;21.020;2023-03-23T13:25:49;6.20;;;3.95;;
75746;SDS011;64363;52.198;21.020;2023-03-23T13:28:27;8.15;;;3.60;;
75746;SDS011;64363;52.198;21.020;2023-03-23T13:30:56;7.55;;;4.40;;
75746;SDS011;64363;52.198;21.020;2023-03-23T13:35:50;7.57;;;4.25;;
75746;SDS011;64363;52.198;21.020;2023-03-23T13:38:26;6.43;;;3.80;;
75746;SDS011;64363;52.198;21.020;2023-03-23T13:40:53;7.25;;;4.15;;
75746;SDS011;64363;52.198;21.020;2023-03-23T13:45:54;8.07;;;3.30;;
75746;SDS011;64363;52.198;21.020;2023-03-23T13:48:24;5.00;;;3.50;;
75746;SDS011;64363;52.198;21.020;2023-03-23T13:50:55;5.95;;;2.80;;
75746;SDS011;64363;52.198;21.020;2023-03-23T13:53:31;5.25;;;2.85;;
75746;SDS011;64363;52.198;21.020;2023-03-23T13:59:12;5.78;;;3.00;;
75746;SDS011;64363;52.198;21.020;2023-03-23T14:01:41;4.75;;;3.15;;
75746;SDS011;64363;52.198;21.020;2023-03-23T14:04:10;6.10;;;3.15;;
75746;SDS011;64363;52.198;21.020;2023-03-23T14:06:39;6.65;;;3.50;;
75746;SDS011;64363;52.198;21.020;2023-03-23T14:11:55;6.13;;;2.67;;
75746;SDS011;64363;52.198;21.020;2023-03-23T14:14:25;7.80;;;3.30;;
75746;SDS011;64363;52.198;21.020;2023-03-23T14:17:05;4.85;;;3.72;;
75746;SDS011;64363;52.198;21.020;2023-03-23T14:19:36;6.03;;;3.17;;
75746;SDS011;64363;52.198;21.020;2023-03-23T14:22:03;10.60;;;3.45;;
75746;SDS011;64363;52.198;21.020;2023-03-23T14:24:30;8.80;;;3.40;;
75746;SDS011;64363;52.198;21.020;2023-03-23T14:29:41;8.70;;;3.72;;
75746;SDS011;64363;52.198;21.020;2023-03-23T14:32:10;8.77;;;4.43;;
75746;SDS011;64363;52.198;21.020;2023-03-23T14:34:40;6.22;;;3.75;;
75746;SDS011;64363;52.198;21.020;2023-03-23T14:37:09;8.27;;;3.85;;
75746;SDS011;64363;52.198;21.020;2023-03-23T14:39:38;7.18;;;4.15;;
75746;SDS011;64363;52.198;21.020;2023-03-23T14:42:11;9.25;;;4.43;;
75746;SDS011;64363;52.198;21.020;2023-03-23T14:47:32;7.13;;;4.00;;
75746;SDS011;64363;52.198;21.020;2023-03-23T14:50:01;9.07;;;4.95;;
75746;SDS011;64363;52.198;21.020;2023-03-23T14:52:34;6.05;;;4.20;;
75746;SDS011;64363;52.198;21.020;2023-03-23T14:55:22;8.07;;;4.65;;
75746;SDS011;64363;52.198;21.020;2023-03-23T14:57:48;8.68;;;4.43;;
75746;SDS011;64363;52.198;21.020;2023-03-23T15:02:48;8.05;;;4.82;;
75746;SDS011;64363;52.198;21.020;2023-03-23T15:05:22;7.70;;;5.15;;
75746;SDS011;64363;52.198;21.020;2023-03-23T15:08:01;9.15;;;5.65;;
75746;SDS011;64363;52.198;21.020;2023-03-23T15:10:30;7.97;;;4.45;;
75746;SDS011;64363;52.198;21.020;2023-03-23T15:12:56;7.15;;;4.40;;
75746;SDS011;64363;52.198;21.020;2023-03-23T15:15:31;7.88;;;4.30;;
75746;SDS011;64363;52.198;21.020;2023-03-23T15:18:00;8.65;;;5.25;;
75746;SDS011;64363;52.198;21.020;2023-03-23T15:20:28;10.77;;;4.57;;
75746;SDS011;64363;52.198;21.020;2023-03-23T15:22:55;7.43;;;4.65;;
75746;SDS011;64363;52.198;21.020;2023-03-23T15:27:53;9.60;;;5.03;;
75746;SDS011;64363;52.198;21.020;2023-03-23T15:30:50;10.18;;;5.38;;
75746;SDS011;64363;52.198;21.020;2023-03-23T15:33:18;9.43;;;5.97;;
75746;SDS011;64363;52.198;21.020;2023-03-23T15:35:51;8.40;;;5.13;;
75746;SDS011;64363;52.198;21.020;2023-03-23T15:38:32;20.90;;;5.32;;
75746;SDS011;64363;52.198;21.020;2023-03-23T15:41:00;11.68;;;5.28;;
75746;SDS011;64363;52.198;21.020;2023-03-23T15:43:31;8.82;;;4.90;;
75746;SDS011;64363;52.198;21.020;2023-03-23T15:48:30;9.20;;;5.28;;
75746;SDS011;64363;52.198;21.020;2023-03-23T15:50:57;7.80;;;4.43;;
75746;SDS011;64363;52.198;21.020;2023-03-23T15:53:30;11.40;;;4.70;;
75746;SDS011;64363;52.198;21.020;2023-03-23T15:55:58;10.23;;;5.03;;
75746;SDS011;64363;52.198;21.020;2023-03-23T15:58:26;10.13;;;4.68;;
75746;SDS011;64363;52.198;21.020;2023-03-23T16:00:52;7.85;;;4.95;;
75746;SDS011;64363;52.198;21.020;2023-03-23T16:03:26;8.32;;;4.70;;
75746;SDS011;64363;52.198;21.020;2023-03-23T16:05:55;9.38;;;5.10;;
75746;SDS011;64363;52.198;21.020;2023-03-23T16:08:24;7.32;;;4.30;;
75746;SDS011;64363;52.198;21.020;2023-03-23T16:10:50;20.05;;;6.22;;
75746;SDS011;64363;52.198;21.020;2023-03-23T16:13:16;9.10;;;4.88;;
75746;SDS011;64363;52.198;21.020;2023-03-23T16:15:42;7.25;;;4.47;;
75746;SDS011;64363;52.198;21.020;2023-03-23T16:18:19;7.63;;;4.53;;